Time;durP1;ratioP1;P1;durP2;ratioP2;P2;SDS_P1;SDS_P2;PMS_P1;PMS_P2;Temp;Humidity;BMP_temperature;BMP_pressure;BME280_temperature;BME280_humidity;BME280_pressure;Samples;Min_cycle;Max_cycle;Signal;HPM_P1;HPM_P2
2022/01/23 00:00:21;;;;;;;13.80;5.35;;;5.70;99.90;;;;;;5118139;28;20101;-66
2022/01/23 00:02:50;;;;;;;12.07;5.68;;;5.60;99.90;;;;;;5108826;28;20052;-66
2022/01/23 00:05:19;;;;;;;12.13;5.43;;;5.50;99.90;;;;;;5090763;28;20078;-66
2022/01/23 00:07:45;;;;;;;14.52;5.90;;;5.70;99.90;;;;;;5143352;27;20043;-66
2022/01/23 00:10:12;;;;;;;12.82;5.75;;;5.60;99.90;;;;;;5144352;27;20047;-66
2022/01/23 00:12:46;;;;;;;15.38;5.82;;;5.50;99.90;;;;;;5109014;28;20044;-66
2022/01/23 00:17:56;;;;;;;13.02;5.47;;;5.50;99.90;;;;;;5109546;28;20062;-66
2022/01/23 00:20:23;;;;;;;17.60;5.63;;;5.70;99.90;;;;;;5109782;28;20105;-66
2022/01/23 00:22:53;;;;;;;15.38;6.22;;;5.50;99.90;;;;;;5092270;28;20048;-66
2022/01/23 00:30:49;;;;;;;13.10;6.55;;;5.50;99.90;;;;;;5145391;27;20073;-66
2022/01/23 00:33:16;;;;;;;10.10;5.22;;;5.60;99.90;;;;;;5126487;28;20427;-66
2022/01/23 00:35:44;;;;;;;12.45;5.72;;;5.50;99.90;;;;;;5126872;28;20545;-66
2022/01/23 00:38:11;;;;;;;13.75;6.13;;;5.50;99.90;;;;;;5120467;28;20044;-66
2022/01/23 00:40:39;;;;;;;14.18;6.05;;;5.40;99.90;;;;;;5108906;28;20046;-66
2022/01/23 00:43:26;;;;;;;13.30;5.85;;;5.50;99.90;;;;;;5107965;28;20046;-66
2022/01/23 00:45:57;;;;;;;15.15;5.78;;;5.50;99.90;;;;;;5101900;28;20046;-66
2022/01/23 00:48:28;;;;;;;13.00;6.50;;;5.40;99.90;;;;;;5138699;27;20047;-66
2022/01/23 00:50:54;;;;;;;18.52;7.72;;;5.30;99.90;;;;;;5135674;27;20067;-66
2022/01/23 00:53:20;;;;;;;13.45;6.10;;;5.40;99.90;;;;;;5143179;27;20043;-66
2022/01/23 00:55:47;;;;;;;14.20;6.38;;;5.40;99.90;;;;;;5123422;28;20059;-66
2022/01/23 00:58:14;;;;;;;11.95;6.00;;;5.40;99.90;;;;;;5098680;28;20107;-66
2022/01/23 01:00:41;;;;;;;14.10;6.35;;;5.40;99.90;;;;;;5104940;28;20055;-66
2022/01/23 01:03:08;;;;;;;14.63;7.13;;;5.60;99.90;;;;;;5125570;28;20068;-66
2022/01/23 01:05:34;;;;;;;16.83;7.05;;;5.50;99.90;;;;;;5125778;28;20040;-66
2022/01/23 01:08:01;;;;;;;15.63;7.13;;;5.50;99.90;;;;;;5142091;27;20043;-66
2022/01/23 01:10:36;;;;;;;12.75;6.22;;;5.50;99.90;;;;;;5107621;28;20079;-66
2022/01/23 01:13:04;;;;;;;12.07;6.55;;;5.60;99.90;;;;;;5125656;28;20048;-66
2022/01/23 01:32:08;;;;;;;21.42;9.18;;;5.60;99.90;;;;;;5108540;28;20043;-66
2022/01/23 01:34:47;;;;;;;13.43;6.88;;;5.50;99.90;;;;;;5142544;27;20080;-66
2022/01/23 01:37:13;;;;;;;11.30;5.80;;;5.50;99.90;;;;;;5105741;27;20050;-66
2022/01/23 01:39:39;;;;;;;10.82;5.88;;;5.60;99.90;;;;;;5106022;28;20044;-66
2022/01/23 01:42:05;;;;;;;15.27;6.55;;;5.60;99.90;;;;;;5141265;27;20067;-66
2022/01/23 01:44:31;;;;;;;16.67;6.45;;;5.50;99.90;;;;;;5106798;28;20047;-66
2022/01/23 01:46:57;;;;;;;12.73;6.38;;;5.50;99.90;;;;;;5126280;27;20435;-66
2022/01/23 01:49:29;;;;;;;10.70;6.07;;;5.40;99.90;;;;;;5141865;27;20043;-66
2022/01/23 01:51:57;;;;;;;10.82;6.25;;;5.40;99.90;;;;;;5124596;28;20075;-66
2022/01/23 01:54:26;;;;;;;16.50;6.65;;;5.40;99.90;;;;;;5104982;28;20060;-66
2022/01/23 01:57:11;;;;;;;16.45;6.03;;;5.30;99.90;;;;;;5138326;27;20097;-66
2022/01/23 02:10:26;;;;;;;13.02;5.80;;;5.40;99.90;;;;;;5103606;28;20058;-66
2022/01/23 02:15:45;;;;;;;12.43;6.47;;;5.40;99.90;;;;;;5111880;28;20519;-66
2022/01/23 02:51:28;;;;;;;14.13;6.28;;;5.40;99.90;;;;;;5145120;27;20054;-66
2022/01/23 02:54:07;;;;;;;;;;;5.40;99.90;;;;;;5131329;28;20051;-66
2022/01/23 02:56:36;;;;;;;10.55;6.13;;;5.20;99.90;;;;;;5147219;27;19983;-66
2022/01/23 02:59:12;;;;;;;12.40;6.00;;;5.30;99.90;;;;;;5129755;28;20439;-66
2022/01/23 03:01:57;;;;;;;14.30;7.10;;;5.30;99.90;;;;;;5148113;27;20058;-66
2022/01/23 03:04:23;;;;;;;18.92;7.10;;;5.30;99.90;;;;;;5114849;28;20047;-66
2022/01/23 03:14:39;;;;;;;8.93;5.95;;;5.50;99.90;;;;;;5147670;27;20137;-66
2022/01/23 03:33:54;;;;;;;19.00;7.05;;;5.40;99.90;;;;;;5084546;28;20053;-66
2022/01/23 03:36:20;;;;;;;15.32;6.72;;;5.40;99.90;;;;;;5051410;28;20109;-66
2022/01/23 03:38:46;;;;;;;14.52;6.30;;;5.50;99.90;;;;;;5067377;28;20096;-66
2022/01/23 03:41:13;;;;;;;17.85;8.07;;;5.50;99.90;;;;;;5054576;28;20045;-66
2022/01/23 03:43:40;;;;;;;15.70;6.90;;;5.60;99.90;;;;;;5050644;28;20128;-66
2022/01/23 03:46:35;;;;;;;14.77;6.55;;;5.50;99.90;;;;;;5067406;28;20102;-66
2022/01/23 03:51:48;;;;;;;14.45;7.65;;;5.50;99.90;;;;;;5051574;28;20041;-66
2022/01/23 03:54:13;;;;;;;14.20;7.20;;;5.50;99.90;;;;;;5050336;28;20052;-66
2022/01/23 03:56:39;;;;;;;12.85;7.30;;;5.60;99.90;;;;;;5080526;28;20045;-66
2022/01/23 03:59:05;;;;;;;17.83;7.50;;;5.50;99.90;;;;;;5057683;28;20057;-66
2022/01/23 04:01:30;;;;;;;13.50;7.25;;;5.50;99.90;;;;;;5066164;28;20451;-66
2022/01/23 04:04:01;;;;;;;19.00;7.82;;;5.40;99.90;;;;;;5077561;28;20047;-66
2022/01/23 04:06:27;;;;;;;13.35;7.68;;;5.60;99.90;;;;;;5142566;27;20050;-66
2022/01/23 04:08:52;;;;;;;15.73;7.80;;;5.70;99.90;;;;;;5141874;27;20419;-66
2022/01/23 04:11:18;;;;;;;18.90;7.45;;;5.60;99.90;;;;;;5109532;28;20048;-66
2022/01/23 04:13:58;;;;;;;16.88;6.97;;;5.40;99.90;;;;;;5128347;28;20506;-66
2022/01/23 04:19:14;;;;;;;16.05;7.60;;;5.50;99.90;;;;;;5111002;28;20078;-66
2022/01/23 04:32:58;;;;;;;14.48;7.80;;;5.50;99.90;;;;;;5107688;28;20051;-66
2022/01/23 04:59:48;;;;;;;15.35;7.63;;;5.50;99.90;;;;;;5097340;28;20050;-66
2022/01/23 05:04:46;;;;;;;19.23;7.65;;;5.40;99.90;;;;;;5126786;28;20073;-66
2022/01/23 05:07:14;;;;;;;19.40;7.85;;;5.50;99.90;;;;;;5126775;28;20043;-66
2022/01/23 05:09:40;;;;;;;15.98;7.43;;;5.50;99.90;;;;;;5107763;28;20075;-66
2022/01/23 05:12:08;;;;;;;16.58;8.63;;;5.50;99.90;;;;;;5108098;28;20484;-66
2022/01/23 05:17:02;;;;;;;14.38;8.02;;;5.40;99.90;;;;;;5107335;28;20051;-66
2022/01/23 05:19:28;;;;;;;15.25;8.00;;;5.40;99.90;;;;;;5108296;28;20038;-66
2022/01/23 05:24:25;;;;;;;15.63;7.65;;;5.40;99.90;;;;;;5106244;28;20073;-66
2022/01/23 05:26:58;;;;;;;16.33;7.82;;;5.50;99.90;;;;;;5120694;28;20054;-66
2022/01/23 05:29:24;;;;;;;17.58;8.15;;;5.50;99.90;;;;;;5137863;27;20048;-66
2022/01/23 05:31:51;;;;;;;15.30;7.63;;;5.30;99.90;;;;;;5106521;28;20059;-66
2022/01/23 05:34:16;;;;;;;16.33;8.20;;;5.40;99.90;;;;;;5108502;28;20074;-66
2022/01/23 05:36:43;;;;;;;13.55;7.10;;;5.40;99.90;;;;;;5107229;28;20067;-66
2022/01/23 05:39:09;;;;;;;14.43;7.97;;;5.50;99.90;;;;;;5142032;27;20173;-66
2022/01/23 05:41:34;;;;;;;16.90;8.23;;;5.30;99.90;;;;;;5105911;28;20144;-66
2022/01/23 05:44:00;;;;;;;14.45;8.32;;;5.50;99.90;;;;;;5141268;27;20035;-66
2022/01/23 05:46:26;;;;;;;15.00;7.63;;;5.40;99.90;;;;;;5124897;28;20598;-66
2022/01/23 05:48:52;;;;;;;15.45;7.97;;;5.40;99.90;;;;;;5124728;28;20040;-66
2022/01/23 05:51:17;;;;;;;12.02;7.10;;;5.40;99.90;;;;;;5102987;28;20075;-66
2022/01/23 05:53:43;;;;;;;16.55;7.00;;;5.40;99.90;;;;;;5063013;28;20051;-66
2022/01/23 05:56:09;;;;;;;15.57;7.47;;;5.50;99.90;;;;;;5121480;28;20107;-66
2022/01/23 05:58:35;;;;;;;12.95;6.63;;;5.40;99.90;;;;;;5107276;28;20113;-66
2022/01/23 06:01:00;;;;;;;11.63;6.85;;;5.20;99.90;;;;;;5106185;28;20062;-66
2022/01/23 06:03:26;;;;;;;10.57;5.90;;;5.30;99.90;;;;;;5124493;28;20043;-66
2022/01/23 06:05:52;;;;;;;14.38;6.05;;;5.40;99.90;;;;;;5125434;28;20035;-66
2022/01/23 06:08:17;;;;;;;11.70;6.25;;;5.40;99.90;;;;;;5106394;28;20035;-66
2022/01/23 06:10:53;;;;;;;13.75;6.00;;;5.30;99.90;;;;;;5106585;28;20054;-66
2022/01/23 06:13:20;;;;;;;15.88;7.20;;;5.30;99.90;;;;;;5106299;28;20068;-66
2022/01/23 06:15:46;;;;;;;12.75;6.75;;;5.50;99.90;;;;;;5125699;28;20039;-66
2022/01/23 06:18:11;;;;;;;15.10;6.35;;;5.40;99.90;;;;;;5107304;28;20180;-66
2022/01/23 06:20:37;;;;;;;10.68;6.10;;;5.40;99.90;;;;;;5140763;27;20185;-66
2022/01/23 06:23:03;;;;;;;13.23;6.88;;;5.30;99.90;;;;;;5105759;28;20051;-66
2022/01/23 06:25:33;;;;;;;14.77;6.43;;;5.40;99.90;;;;;;5105746;28;20059;-66
2022/01/23 06:27:59;;;;;;;14.10;6.40;;;5.40;99.90;;;;;;5105690;28;20061;-66
2022/01/23 06:30:25;;;;;;;13.73;6.47;;;5.40;99.90;;;;;;5112321;28;20106;-66
2022/01/23 06:32:51;;;;;;;16.02;6.90;;;5.50;99.90;;;;;;5105880;28;20047;-66
2022/01/23 06:35:17;;;;;;;10.70;5.47;;;5.30;99.90;;;;;;5125360;28;20034;-66
2022/01/23 06:37:42;;;;;;;13.30;6.75;;;5.40;99.90;;;;;;5125156;28;20066;-66
2022/01/23 06:40:09;;;;;;;12.77;7.03;;;5.30;99.90;;;;;;5084482;28;20062;-66
2022/01/23 06:42:34;;;;;;;11.75;6.57;;;5.40;99.90;;;;;;5117013;28;20039;-66
2022/01/23 06:45:00;;;;;;;13.45;6.30;;;5.40;99.90;;;;;;5112317;28;20055;-66
2022/01/23 06:47:26;;;;;;;16.23;7.15;;;5.50;99.90;;;;;;5123864;28;20039;-66
2022/01/23 06:49:52;;;;;;;13.90;7.20;;;5.50;99.90;;;;;;5138506;27;20043;-66
2022/01/23 06:52:18;;;;;;;13.93;7.40;;;5.30;99.90;;;;;;5106725;28;20075;-66
2022/01/23 06:54:43;;;;;;;15.38;6.72;;;5.50;99.90;;;;;;5140231;28;20058;-66
2022/01/23 06:57:09;;;;;;;15.63;6.30;;;5.50;99.90;;;;;;5104702;28;20048;-66
2022/01/23 06:59:35;;;;;;;14.25;7.00;;;5.40;99.90;;;;;;5121949;28;20044;-66
2022/01/23 07:02:03;;;;;;;12.93;6.80;;;5.20;99.90;;;;;;5121557;28;20088;-66
2022/01/23 07:04:29;;;;;;;13.57;6.82;;;5.20;99.90;;;;;;5122273;28;20040;-66
2022/01/23 07:06:55;;;;;;;13.57;6.57;;;5.30;99.90;;;;;;5123635;28;20158;-66
2022/01/23 07:09:21;;;;;;;15.23;7.30;;;5.40;99.90;;;;;;5124042;28;20036;-66
2022/01/23 07:11:47;;;;;;;12.65;7.43;;;5.30;99.90;;;;;;5117841;28;20040;-66
2022/01/23 07:14:12;;;;;;;12.85;7.28;;;5.30;99.90;;;;;;5122836;28;20132;-66
2022/01/23 07:16:38;;;;;;;12.73;7.22;;;5.40;99.90;;;;;;5124221;28;20047;-66
2022/01/23 07:19:23;;;;;;;10.80;6.75;;;5.30;99.90;;;;;;5124310;28;20035;-66
2022/01/23 07:21:48;;;;;;;14.32;6.78;;;5.30;99.90;;;;;;5119638;28;20047;-66
2022/01/23 07:24:14;;;;;;;11.02;7.25;;;5.40;99.90;;;;;;5121330;28;20032;-66
2022/01/23 07:26:40;;;;;;;15.15;8.00;;;5.20;99.90;;;;;;5120380;28;20492;-66
2022/01/23 07:29:07;;;;;;;15.35;7.20;;;5.30;99.90;;;;;;5120230;28;20071;-67
2022/01/23 07:34:01;;;;;;;15.68;6.80;;;5.20;99.90;;;;;;5127197;28;20042;-66
2022/01/23 07:36:27;;;;;;;14.82;7.43;;;5.30;99.90;;;;;;5123538;28;20036;-66
2022/01/23 07:38:53;;;;;;;16.25;7.68;;;5.40;99.90;;;;;;5126001;28;20079;-66
2022/01/23 07:41:19;;;;;;;13.27;7.40;;;5.30;99.90;;;;;;5125471;28;20035;-67
2022/01/23 07:43:44;;;;;;;13.38;8.13;;;5.30;99.90;;;;;;5123460;27;20899;-65
2022/01/23 07:46:10;;;;;;;11.88;7.00;;;5.40;99.90;;;;;;5127807;28;20051;-65
2022/01/23 07:48:36;;;;;;;12.98;7.40;;;5.40;99.90;;;;;;5123321;28;20136;-65
2022/01/23 07:51:01;;;;;;;14.25;8.18;;;5.40;99.90;;;;;;5161134;27;20058;-65
2022/01/23 07:53:27;;;;;;;15.05;7.90;;;5.50;99.90;;;;;;5128082;28;20047;-65
2022/01/23 07:55:53;;;;;;;17.05;7.95;;;5.40;99.90;;;;;;5121761;27;20035;-65
2022/01/23 07:58:19;;;;;;;14.10;7.50;;;5.30;99.90;;;;;;5126222;28;20067;-65
2022/01/23 08:00:44;;;;;;;13.55;7.35;;;5.40;99.90;;;;;;5153101;27;20276;-65
2022/01/23 08:03:10;;;;;;;13.05;7.22;;;5.50;99.90;;;;;;5143045;27;20107;-65
2022/01/23 08:05:37;;;;;;;14.30;7.55;;;5.40;99.90;;;;;;5137895;27;20055;-62
2022/01/23 08:08:04;;;;;;;12.73;7.47;;;5.40;99.90;;;;;;5127979;28;20418;-65
2022/01/23 08:10:29;;;;;;;13.63;7.43;;;5.40;99.90;;;;;;5106911;28;20048;-66
2022/01/23 08:12:55;;;;;;;14.07;7.40;;;5.40;99.90;;;;;;5118034;28;20044;-65
2022/01/23 08:15:21;;;;;;;13.98;7.63;;;5.40;99.90;;;;;;5125506;28;20039;-65
2022/01/23 08:17:46;;;;;;;14.55;7.63;;;5.50;99.90;;;;;;5124867;28;20047;-65
2022/01/23 08:20:12;;;;;;;16.55;7.38;;;5.40;99.90;;;;;;5122397;28;20124;-65
2022/01/23 08:22:38;;;;;;;12.00;7.40;;;5.40;99.90;;;;;;5153923;27;20040;-65
2022/01/23 08:25:05;;;;;;;15.75;7.25;;;5.60;99.90;;;;;;5118711;28;20043;-65
2022/01/23 08:27:31;;;;;;;10.88;6.82;;;5.60;99.90;;;;;;5160230;27;20036;-66
2022/01/23 08:29:58;;;;;;;11.45;6.93;;;5.60;99.90;;;;;;5125635;28;20502;-65
2022/01/23 08:32:25;;;;;;;11.05;7.22;;;5.70;99.90;;;;;;5126156;28;20044;-65
2022/01/23 08:34:50;;;;;;;15.05;7.55;;;5.50;99.90;;;;;;5118116;28;20457;-64
2022/01/23 08:37:17;;;;;;;12.93;7.30;;;5.70;99.90;;;;;;5124164;28;20039;-66
2022/01/23 08:39:43;;;;;;;12.93;7.32;;;5.70;99.90;;;;;;5110463;28;20065;-65
2022/01/23 08:42:17;;;;;;;13.02;7.43;;;5.70;99.90;;;;;;5124554;28;20096;-65
2022/01/23 08:44:47;;;;;;;11.68;7.38;;;5.70;99.90;;;;;;5123083;28;20052;-65
2022/01/23 08:47:13;;;;;;;12.85;7.50;;;5.70;99.90;;;;;;5126711;28;20039;-65
2022/01/23 08:49:48;;;;;;;12.27;7.22;;;5.70;99.90;;;;;;5126002;28;20043;-66
2022/01/23 08:52:17;;;;;;;10.70;6.85;;;5.80;99.90;;;;;;5125006;28;20055;-66
2022/01/23 08:54:45;;;;;;;10.43;5.88;;;5.70;99.90;;;;;;5124643;28;20048;-66
2022/01/23 08:57:12;;;;;;;10.77;7.38;;;5.70;99.90;;;;;;5126161;28;20365;-66
2022/01/23 08:59:38;;;;;;;13.02;7.45;;;5.70;99.90;;;;;;5118885;28;20093;-66
2022/01/23 09:02:04;;;;;;;11.75;6.00;;;5.80;99.90;;;;;;5121122;28;20047;-66
2022/01/23 09:04:30;;;;;;;10.60;6.10;;;5.90;99.90;;;;;;5122283;28;20061;-66
2022/01/23 09:06:55;;;;;;;11.77;6.07;;;5.90;99.90;;;;;;5124698;28;20078;-66
2022/01/23 09:09:23;;;;;;;11.32;6.47;;;6.00;99.90;;;;;;5123935;28;20079;-66
2022/01/23 09:12:04;;;;;;;7.07;4.75;;;6.00;99.90;;;;;;5122642;28;20059;-66
2022/01/23 09:14:30;;;;;;;8.20;4.80;;;6.00;99.90;;;;;;5120736;28;20059;-66
2022/01/23 09:16:57;;;;;;;9.02;5.28;;;6.10;99.90;;;;;;5120420;28;20043;-66
2022/01/23 09:19:24;;;;;;;10.00;6.22;;;6.10;99.90;;;;;;5119711;28;20047;-67
2022/01/23 09:21:51;;;;;;;8.77;4.90;;;6.00;99.90;;;;;;5119107;27;20057;-64
2022/01/23 09:24:19;;;;;;;9.73;5.15;;;6.20;99.90;;;;;;5124427;28;20419;-64
2022/01/23 09:26:51;;;;;;;9.63;4.85;;;6.20;99.90;;;;;;5126558;28;20054;-64
2022/01/23 09:29:25;;;;;;;9.15;5.03;;;6.30;99.90;;;;;;5123924;28;20039;-64
2022/01/23 09:31:52;;;;;;;9.00;5.25;;;6.30;99.90;;;;;;5106067;28;20048;-64
2022/01/23 09:34:20;;;;;;;8.60;5.05;;;6.30;99.90;;;;;;5124391;28;20079;-64
2022/01/23 09:36:47;;;;;;;7.97;4.75;;;6.30;99.90;;;;;;5123834;28;20055;-64
2022/01/23 09:39:15;;;;;;;6.68;4.40;;;6.30;99.90;;;;;;5123798;28;20044;-66
2022/01/23 09:42:26;;;;;;;8.10;4.18;;;6.40;99.90;;;;;;5120210;28;20113;-66
2022/01/23 09:45:09;;;;;;;10.35;4.57;;;6.30;99.90;;;;;;5114629;28;20055;-66
2022/01/23 09:47:36;;;;;;;6.28;3.50;;;6.40;99.90;;;;;;5123820;28;20059;-66
2022/01/23 09:50:05;;;;;;;6.82;3.80;;;6.50;99.90;;;;;;5124613;28;20090;-68
2022/01/23 09:52:34;;;;;;;5.68;3.70;;;6.60;99.90;;;;;;5124907;28;20062;-67
2022/01/23 09:55:08;;;;;;;5.10;3.40;;;6.50;99.90;;;;;;5118536;28;20036;-66
2022/01/23 09:57:37;;;;;;;5.97;4.20;;;6.60;99.90;;;;;;5123449;28;20100;-66
2022/01/23 10:00:07;;;;;;;6.37;3.50;;;6.60;99.90;;;;;;5120717;28;20062;-66
2022/01/23 10:02:33;;;;;;;4.60;3.00;;;6.70;99.90;;;;;;5109499;27;20121;-66
2022/01/23 10:04:58;;;;;;;6.50;3.33;;;6.70;99.90;;;;;;5119065;28;20071;-66
2022/01/23 10:07:25;;;;;;;4.65;2.30;;;6.70;99.90;;;;;;5124803;28;20618;-66
2022/01/23 10:10:06;;;;;;;7.45;2.88;;;6.80;99.90;;;;;;5123224;28;20103;-66
2022/01/23 10:12:33;;;;;;;4.28;2.58;;;6.80;99.90;;;;;;5115913;28;20039;-66
2022/01/23 10:14:58;;;;;;;7.05;2.90;;;6.70;99.90;;;;;;5118257;28;20043;-71
2022/01/23 10:17:24;;;;;;;7.43;2.80;;;6.90;99.90;;;;;;5121017;28;20577;-65
2022/01/23 10:19:50;;;;;;;4.82;2.50;;;6.90;99.90;;;;;;5123920;28;20039;-65
2022/01/23 10:22:17;;;;;;;4.15;2.22;;;6.80;99.90;;;;;;5123288;28;20097;-64
2022/01/23 10:24:43;;;;;;;4.53;2.75;;;6.80;99.90;;;;;;5119511;28;20051;-64
2022/01/23 10:27:09;;;;;;;4.97;2.08;;;6.90;99.90;;;;;;5118715;28;20039;-64
2022/01/23 10:29:37;;;;;;;4.13;2.67;;;6.90;99.90;;;;;;5119951;28;20040;-65
2022/01/23 10:32:14;;;;;;;5.07;2.28;;;7.00;99.90;;;;;;5120475;28;20104;-64
2022/01/23 10:34:44;;;;;;;5.13;2.72;;;7.00;99.90;;;;;;5120248;28;20514;-65
2022/01/23 10:37:12;;;;;;;5.88;3.08;;;7.00;99.90;;;;;;5121395;28;20054;-63
2022/01/23 10:39:45;;;;;;;4.32;2.67;;;7.10;99.90;;;;;;5120994;28;20031;-64
2022/01/23 10:48:01;;;;;;;5.75;3.10;;;7.20;99.90;;;;;;5121041;28;20181;-65
2022/01/23 10:50:30;;;;;;;5.43;1.95;;;7.10;99.90;;;;;;5124465;28;20403;-65
2022/01/23 10:52:59;;;;;;;5.63;2.42;;;7.10;99.90;;;;;;5122485;28;20091;-63
2022/01/23 10:55:35;;;;;;;3.72;2.20;;;7.20;99.90;;;;;;5125197;28;20048;-64
2022/01/23 10:58:06;;;;;;;5.68;2.78;;;7.10;99.90;;;;;;5140969;28;20083;-64
2022/01/23 11:00:37;;;;;;;5.50;2.80;;;7.20;99.90;;;;;;5120134;28;20039;-65
2022/01/23 11:03:22;;;;;;;2.78;1.80;;;7.20;99.90;;;;;;5105550;28;20043;-65
2022/01/23 11:05:50;;;;;;;2.80;1.98;;;7.30;99.90;;;;;;5124269;28;20047;-67
2022/01/23 11:08:30;;;;;;;3.55;1.60;;;7.20;99.90;;;;;;5143324;27;20260;-67
2022/01/23 11:11:02;;;;;;;3.38;2.00;;;7.30;99.90;;;;;;5125827;28;20048;-67
2022/01/23 11:19:22;;;;;;;3.65;1.60;;;7.30;99.90;;;;;;5126816;28;20058;-67
2022/01/23 11:21:48;;;;;;;2.65;1.50;;;7.30;99.90;;;;;;5143007;27;20391;-67
2022/01/23 11:24:15;;;;;;;1.90;0.90;;;7.40;99.90;;;;;;5126380;28;20076;-67
2022/01/23 11:26:41;;;;;;;1.55;1.00;;;7.40;99.90;;;;;;5127720;28;20043;-67
2022/01/23 11:29:09;;;;;;;2.33;1.23;;;7.40;99.90;;;;;;5144990;27;20130;-67
2022/01/23 11:31:36;;;;;;;3.28;1.20;;;7.40;99.90;;;;;;5110255;28;20402;-65
2022/01/23 11:34:05;;;;;;;1.52;0.73;;;7.40;99.90;;;;;;5138133;27;20059;-68
2022/01/23 11:36:30;;;;;;;0.80;0.50;;;7.30;99.90;;;;;;5128135;28;20043;-66
2022/01/23 11:39:04;;;;;;;2.35;0.88;;;7.30;99.90;;;;;;5109749;28;20126;-66
2022/01/23 11:55:31;;;;;;;0.88;0.80;;;7.10;99.90;;;;;;5122334;28;20082;-66
2022/01/23 11:57:56;;;;;;;2.08;0.73;;;7.00;99.90;;;;;;5108533;28;20051;-66
2022/01/23 12:00:31;;;;;;;0.88;0.80;;;7.10;99.90;;;;;;5120627;28;20039;-66
2022/01/23 12:03:16;;;;;;;1.52;1.05;;;7.00;99.90;;;;;;5115453;28;20051;-66
2022/01/23 12:05:45;;;;;;;2.05;1.10;;;7.00;99.90;;;;;;5120064;28;20085;-66
2022/01/23 12:08:18;;;;;;;1.58;1.10;;;7.00;99.90;;;;;;5116243;27;20044;-66
2022/01/23 12:11:23;;;;;;;1.63;1.00;;;7.00;99.90;;;;;;5121530;28;20047;-66
2022/01/23 12:16:58;;;;;;;1.90;1.35;;;6.90;99.90;;;;;;5101228;28;20071;-66
2022/01/23 12:19:26;;;;;;;2.33;1.42;;;6.90;99.90;;;;;;5114395;28;20047;-66
2022/01/23 12:21:54;;;;;;;1.10;1.00;;;6.90;99.90;;;;;;5119063;28;20042;-66
2022/01/23 12:24:22;;;;;;;3.05;1.17;;;6.90;99.90;;;;;;5137976;27;20043;-66
2022/01/23 12:26:50;;;;;;;1.60;1.10;;;6.90;99.90;;;;;;5107781;28;20043;-66
2022/01/23 12:29:27;;;;;;;2.75;1.17;;;6.90;99.90;;;;;;5107365;28;20057;-66
2022/01/23 12:32:16;;;;;;;1.75;1.00;;;6.90;99.90;;;;;;5107992;28;20051;-66
2022/01/23 12:35:06;;;;;;;2.10;1.30;;;6.90;99.90;;;;;;5126173;28;20118;-66
2022/01/23 12:38:00;;;;;;;2.70;1.20;;;6.90;99.90;;;;;;5105293;28;20052;-66
2022/01/23 12:40:31;;;;;;;2.35;1.08;;;6.90;99.90;;;;;;5123248;28;20039;-66
2022/01/23 12:43:11;;;;;;;2.28;1.50;;;6.90;99.90;;;;;;5108009;28;20051;-66
2022/01/23 12:45:58;;;;;;;3.17;1.92;;;7.00;99.90;;;;;;5112842;27;20057;-66
2022/01/23 12:48:30;;;;;;;6.65;4.10;;;6.90;99.90;;;;;;5118356;28;20051;-66
2022/01/23 12:51:01;;;;;;;5.05;3.50;;;7.00;99.90;;;;;;5106379;28;20129;-66
2022/01/23 12:53:36;;;;;;;4.40;2.75;;;7.00;99.90;;;;;;5103264;28;20076;-66
2022/01/23 12:56:12;;;;;;;4.15;2.63;;;7.00;99.90;;;;;;5121635;28;20052;-66
2022/01/23 12:58:37;;;;;;;3.53;2.30;;;7.00;99.90;;;;;;5125831;28;20048;-66
2022/01/23 13:01:18;;;;;;;5.10;3.10;;;7.10;99.90;;;;;;5108811;28;20056;-66
2022/01/23 13:03:51;;;;;;;3.75;2.10;;;7.10;99.90;;;;;;5126716;28;20048;-66
2022/01/23 13:06:17;;;;;;;1.83;1.20;;;7.00;99.90;;;;;;5119686;28;20504;-66
2022/01/23 13:08:52;;;;;;;3.65;1.40;;;6.80;99.90;;;;;;5107416;28;20071;-66
2022/01/23 13:13:58;;;;;;;2.10;1.52;;;6.80;99.90;;;;;;5116933;28;20051;-66
2022/01/23 13:16:37;;;;;;;4.50;2.55;;;6.80;99.90;;;;;;5124465;28;20560;-66
2022/01/23 13:30:24;;;;;;;5.20;2.63;;;6.90;99.90;;;;;;5072438;28;20058;-66
2022/01/23 13:32:58;;;;;;;4.93;2.90;;;6.90;99.90;;;;;;5124902;28;20134;-66
2022/01/23 13:35:29;;;;;;;7.68;6.88;;;6.90;99.90;;;;;;5104456;28;20050;-66
2022/01/23 13:37:58;;;;;;;5.55;3.70;;;6.90;99.90;;;;;;5118596;28;20043;-66
2022/01/23 13:40:35;;;;;;;7.10;6.10;;;6.90;99.90;;;;;;5097246;28;20044;-66
2022/01/23 13:54:20;;;;;;;5.25;4.43;;;7.30;99.90;;;;;;5113357;27;20615;-65
2022/01/23 13:59:52;;;;;;;3.60;2.67;;;7.40;99.90;;;;;;5098863;28;20077;-64
2022/01/23 14:02:24;;;;;;;3.92;2.70;;;7.50;99.90;;;;;;5116971;28;20393;-63
2022/01/23 14:05:05;;;;;;;5.10;2.80;;;7.70;99.90;;;;;;5119010;27;20075;-64
2022/01/23 14:07:31;;;;;;;3.80;2.67;;;7.60;99.90;;;;;;5121464;27;20495;-64
2022/01/23 14:09:59;;;;;;;4.88;3.00;;;7.50;99.90;;;;;;5101755;27;20047;-64
2022/01/23 14:12:26;;;;;;;4.78;2.40;;;7.50;99.90;;;;;;5124264;27;20069;-64
2022/01/23 14:15:05;;;;;;;26.45;23.83;;;7.60;99.90;;;;;;5098352;27;20043;-64
2022/01/23 14:17:36;;;;;;;5.47;4.05;;;7.40;99.90;;;;;;5121488;27;20051;-64
2022/01/23 14:20:11;;;;;;;3.22;2.00;;;7.40;99.90;;;;;;5115864;27;20050;-64
2022/01/23 14:22:40;;;;;;;3.88;2.60;;;7.30;99.90;;;;;;5114690;28;20118;-63
2022/01/23 14:25:20;;;;;;;3.92;3.08;;;7.20;99.90;;;;;;5119874;27;20043;-64
2022/01/23 14:28:05;;;;;;;6.95;5.22;;;7.20;99.90;;;;;;5086802;28;20047;-64
2022/01/23 14:30:32;;;;;;;6.78;5.95;;;7.10;99.90;;;;;;5116267;28;20043;-64
2022/01/23 14:33:07;;;;;;;3.38;2.30;;;7.10;99.90;;;;;;5117442;28;20031;-64
2022/01/23 14:35:34;;;;;;;8.85;8.15;;;7.00;99.90;;;;;;5087736;28;20857;-64
2022/01/23 14:38:09;;;;;;;4.50;3.88;;;7.00;99.90;;;;;;5116766;28;20137;-63
2022/01/23 14:40:35;;;;;;;4.03;3.28;;;6.90;99.90;;;;;;5119586;27;20114;-64
2022/01/23 14:43:03;;;;;;;8.43;5.80;;;6.90;99.90;;;;;;5117918;27;20100;-63
2022/01/23 14:45:31;;;;;;;9.20;8.18;;;6.90;99.90;;;;;;5102660;28;20047;-63
2022/01/23 14:47:57;;;;;;;12.40;10.25;;;6.90;99.90;;;;;;5101072;28;20044;-63
2022/01/23 14:50:25;;;;;;;6.63;5.80;;;6.90;99.90;;;;;;5089960;28;20439;-63
2022/01/23 14:52:51;;;;;;;4.57;3.08;;;6.90;99.90;;;;;;5117560;28;20138;-66
2022/01/23 14:55:17;;;;;;;7.75;7.00;;;7.00;99.90;;;;;;5116082;28;20054;-63
2022/01/23 14:57:44;;;;;;;6.78;6.13;;;7.00;99.90;;;;;;5115184;28;20040;-63
2022/01/23 15:00:12;;;;;;;26.80;24.48;;;7.00;99.90;;;;;;5113871;28;20047;-63
2022/01/23 15:02:39;;;;;;;20.52;18.65;;;6.90;99.90;;;;;;5104461;28;20047;-62
2022/01/23 15:05:05;;;;;;;2.55;1.77;;;6.90;99.90;;;;;;5115990;28;20178;-63
2022/01/23 15:07:36;;;;;;;4.00;1.90;;;6.90;99.90;;;;;;5116302;28;20053;-62
2022/01/23 15:10:04;;;;;;;18.13;16.45;;;6.80;99.90;;;;;;5093809;28;20047;-62
2022/01/23 15:12:30;;;;;;;2.78;1.70;;;6.80;99.90;;;;;;5100972;28;20359;-63
2022/01/23 15:14:56;;;;;;;2.90;1.90;;;6.80;99.90;;;;;;5113453;28;20292;-63
2022/01/23 15:17:21;;;;;;;6.72;3.28;;;6.80;99.90;;;;;;5120229;28;20047;-63
2022/01/23 15:19:47;;;;;;;4.72;2.50;;;6.70;99.90;;;;;;5079893;28;20481;-63
2022/01/23 15:22:13;;;;;;;5.40;3.65;;;6.70;99.90;;;;;;5103173;28;20087;-63
2022/01/23 15:24:39;;;;;;;3.00;2.03;;;6.70;99.90;;;;;;5091151;28;20050;-63
2022/01/23 15:27:05;;;;;;;3.90;2.85;;;6.70;99.90;;;;;;5125570;28;20039;-63
2022/01/23 15:29:31;;;;;;;3.47;2.28;;;6.70;99.90;;;;;;5105506;28;20065;-63
2022/01/23 15:31:57;;;;;;;12.18;10.90;;;6.60;99.90;;;;;;5126441;27;20033;-63
2022/01/23 15:34:23;;;;;;;9.63;8.65;;;6.60;99.90;;;;;;5090082;28;20036;-63
2022/01/23 15:36:52;;;;;;;4.65;3.60;;;6.70;99.90;;;;;;5131035;28;20042;-63
2022/01/23 15:39:24;;;;;;;5.20;3.97;;;6.70;99.90;;;;;;5091153;28;20055;-63
2022/01/23 15:41:50;;;;;;;3.95;2.97;;;6.70;99.90;;;;;;5111271;28;20052;-64
2022/01/23 15:44:16;;;;;;;3.75;2.50;;;6.70;99.90;;;;;;5089796;28;20266;-64
2022/01/23 15:46:42;;;;;;;4.30;2.80;;;6.80;99.90;;;;;;5112497;28;20035;-64
2022/01/23 15:49:08;;;;;;;3.80;2.40;;;6.80;99.90;;;;;;5125621;28;20055;-63
2022/01/23 15:51:35;;;;;;;4.70;3.78;;;6.80;99.90;;;;;;5103149;28;20035;-63
2022/01/23 15:54:01;;;;;;;5.03;2.75;;;6.80;99.90;;;;;;5112813;28;20050;-64
2022/01/23 15:56:26;;;;;;;4.13;3.28;;;6.80;99.90;;;;;;5124367;27;20035;-64
2022/01/23 15:58:52;;;;;;;5.80;3.42;;;6.80;99.90;;;;;;5120909;27;20035;-63
2022/01/23 16:01:18;;;;;;;3.38;2.25;;;6.80;99.90;;;;;;5125799;27;20072;-64
2022/01/23 16:03:44;;;;;;;3.65;2.20;;;6.80;99.90;;;;;;5115438;28;20110;-63
2022/01/23 16:06:09;;;;;;;4.20;2.30;;;6.70;99.90;;;;;;5106382;27;20054;-64
2022/01/23 16:08:38;;;;;;;2.85;1.63;;;6.70;99.90;;;;;;5099159;28;20048;-64
2022/01/23 16:11:06;;;;;;;1.83;1.48;;;6.70;99.90;;;;;;5119842;27;20047;-64
2022/01/23 16:13:32;;;;;;;2.63;2.08;;;6.60;99.90;;;;;;5101648;28;20107;-64
2022/01/23 16:15:59;;;;;;;6.53;4.53;;;6.60;99.90;;;;;;5108447;27;20050;-64
2022/01/23 16:18:25;;;;;;;6.35;4.60;;;6.60;99.90;;;;;;5104592;28;20050;-64
2022/01/23 16:20:52;;;;;;;4.00;3.30;;;6.70;99.90;;;;;;5103758;27;20051;-64
2022/01/23 16:23:18;;;;;;;5.15;3.70;;;6.90;99.90;;;;;;5101863;28;20047;-65